sensor_id;sensor_type;location;lat;lon;timestamp;pressure;altitude;pressure_sealevel;temperature;humidity
55301;BME280;58302;51.446;-2.000;2023-02-17T00:00:56;101171.53;;;9.62;100.00
55301;BME280;58302;51.446;-2.000;2023-02-17T00:03:23;101169.03;;;9.60;100.00
55301;BME280;58302;51.446;-2.000;2023-02-17T00:05:49;101166.31;;;9.60;100.00
55301;BME280;58302;51.446;-2.000;2023-02-17T00:08:15;101165.25;;;9.61;100.00
55301;BME280;58302;51.446;-2.000;2023-02-17T00:10:41;101164.94;;;9.58;100.00
55301;BME280;58302;51.446;-2.000;2023-02-17T00:13:07;101170.34;;;9.58;100.00
55301;BME280;58302;51.446;-2.000;2023-02-17T00:15:33;101150.75;;;9.56;100.00
55301;BME280;58302;51.446;-2.000;2023-02-17T00:17:59;101165.66;;;9.53;100.00
55301;BME280;58302;51.446;-2.000;2023-02-17T00:20:27;101167.78;;;9.51;100.00
55301;BME280;58302;51.446;-2.000;2023-02-17T00:22:53;101160.47;;;9.52;100.00
55301;BME280;58302;51.446;-2.000;2023-02-17T00:25:19;101157.16;;;9.49;100.00
55301;BME280;58302;51.446;-2.000;2023-02-17T00:27:45;101161.53;;;9.50;100.00
55301;BME280;58302;51.446;-2.000;2023-02-17T00:30:11;101155.25;;;9.50;100.00
55301;BME280;58302;51.446;-2.000;2023-02-17T00:32:37;101162.38;;;9.51;100.00
55301;BME280;58302;51.446;-2.000;2023-02-17T00:35:03;101153.63;;;9.49;100.00
55301;BME280;58302;51.446;-2.000;2023-02-17T00:37:30;101142.19;;;9.47;100.00
55301;BME280;58302;51.446;-2.000;2023-02-17T00:39:59;101151.97;;;9.48;100.00
55301;BME280;58302;51.446;-2.000;2023-02-17T00:42:25;101151.16;;;9.47;100.00
55301;BME280;58302;51.446;-2.000;2023-02-17T00:44:50;101146.31;;;9.49;100.00
55301;BME280;58302;51.446;-2.000;2023-02-17T00:47:16;101158.81;;;9.50;100.00
55301;BME280;58302;51.446;-2.000;2023-02-17T00:49:42;101156.13;;;9.50;100.00
55301;BME280;58302;51.446;-2.000;2023-02-17T00:52:08;101160.47;;;9.52;100.00
55301;BME280;58302;51.446;-2.000;2023-02-17T00:54:34;101153.41;;;9.50;100.00
55301;BME280;58302;51.446;-2.000;2023-02-17T00:57:00;101143.13;;;9.53;100.00
55301;BME280;58302;51.446;-2.000;2023-02-17T00:59:26;101152.09;;;9.53;100.00
55301;BME280;58302;51.446;-2.000;2023-02-17T01:01:52;101152.66;;;9.55;100.00
55301;BME280;58302;51.446;-2.000;2023-02-17T01:04:18;101149.72;;;9.57;100.00
55301;BME280;58302;51.446;-2.000;2023-02-17T01:06:44;101145.34;;;9.56;100.00
55301;BME280;58302;51.446;-2.000;2023-02-17T01:09:12;101145.34;;;9.56;100.00
55301;BME280;58302;51.446;-2.000;2023-02-17T01:11:39;101134.97;;;9.53;100.00
55301;BME280;58302;51.446;-2.000;2023-02-17T01:14:05;101137.69;;;9.53;100.00
55301;BME280;58302;51.446;-2.000;2023-02-17T01:16:35;101142.53;;;9.50;100.00
55301;BME280;58302;51.446;-2.000;2023-02-17T01:19:07;101140.41;;;9.53;100.00
55301;BME280;58302;51.446;-2.000;2023-02-17T01:21:34;101138.75;;;9.52;100.00
55301;BME280;58302;51.446;-2.000;2023-02-17T01:24:01;101134.16;;;9.52;100.00
55301;BME280;58302;51.446;-2.000;2023-02-17T01:26:29;101128.72;;;9.52;100.00
55301;BME280;58302;51.446;-2.000;2023-02-17T01:28:56;101132.28;;;9.53;100.00
55301;BME280;58302;51.446;-2.000;2023-02-17T01:31:23;101123.31;;;9.52;100.00
55301;BME280;58302;51.446;-2.000;2023-02-17T01:33:49;101141.13;;;9.48;100.00
55301;BME280;58302;51.446;-2.000;2023-02-17T01:36:19;101136.28;;;9.50;100.00
55301;BME280;58302;51.446;-2.000;2023-02-17T01:38:45;101140.31;;;9.47;100.00
55301;BME280;58302;51.446;-2.000;2023-02-17T01:41:12;101142.19;;;9.47;100.00
55301;BME280;58302;51.446;-2.000;2023-02-17T01:43:38;101139.72;;;9.45;100.00
55301;BME280;58302;51.446;-2.000;2023-02-17T01:46:05;101147.63;;;9.47;100.00
55301;BME280;58302;51.446;-2.000;2023-02-17T01:48:52;101161.75;;;9.49;100.00
55301;BME280;58302;51.446;-2.000;2023-02-17T01:51:25;101156.84;;;9.46;100.00
55301;BME280;58302;51.446;-2.000;2023-02-17T01:54:06;101160.63;;;9.45;100.00
55301;BME280;58302;51.446;-2.000;2023-02-17T01:56:35;101153.28;;;9.45;100.00
55301;BME280;58302;51.446;-2.000;2023-02-17T01:59:09;101150.81;;;9.44;100.00
55301;BME280;58302;51.446;-2.000;2023-02-17T02:01:37;101154.34;;;9.44;100.00
55301;BME280;58302;51.446;-2.000;2023-02-17T02:04:05;101145.97;;;9.46;100.00
55301;BME280;58302;51.446;-2.000;2023-02-17T02:06:34;101160.84;;;9.43;100.00
55301;BME280;58302;51.446;-2.000;2023-02-17T02:09:11;101167.69;;;9.46;100.00
55301;BME280;58302;51.446;-2.000;2023-02-17T02:11:39;101169.78;;;9.44;100.00
55301;BME280;58302;51.446;-2.000;2023-02-17T02:14:06;101158.13;;;9.43;100.00
55301;BME280;58302;51.446;-2.000;2023-02-17T02:17:05;101172.75;;;9.42;100.00
55301;BME280;58302;51.446;-2.000;2023-02-17T02:19:56;101168.16;;;9.43;100.00
55301;BME280;58302;51.446;-2.000;2023-02-17T02:33:15;101195.66;;;9.35;100.00
55301;BME280;58302;51.446;-2.000;2023-02-17T02:35:57;101178.56;;;9.34;100.00
55301;BME280;58302;51.446;-2.000;2023-02-17T02:38:38;101198.84;;;9.32;100.00
55301;BME280;58302;51.446;-2.000;2023-02-17T02:41:11;101195.31;;;9.31;100.00
55301;BME280;58302;51.446;-2.000;2023-02-17T02:43:38;101193.91;;;9.29;100.00
55301;BME280;58302;51.446;-2.000;2023-02-17T02:46:04;101199.34;;;9.29;100.00
55301;BME280;58302;51.446;-2.000;2023-02-17T02:48:30;101197.66;;;9.28;100.00
55301;BME280;58302;51.446;-2.000;2023-02-17T02:51:15;101200.97;;;9.30;100.00
55301;BME280;58302;51.446;-2.000;2023-02-17T02:56:58;101209.00;;;9.24;100.00
55301;BME280;58302;51.446;-2.000;2023-02-17T03:02:44;101200.63;;;9.26;100.00
55301;BME280;58302;51.446;-2.000;2023-02-17T03:05:39;101207.94;;;9.26;100.00
55301;BME280;58302;51.446;-2.000;2023-02-17T03:08:16;101204.41;;;9.25;100.00
55301;BME280;58302;51.446;-2.000;2023-02-17T03:10:47;101186.22;;;9.26;100.00
55301;BME280;58302;51.446;-2.000;2023-02-17T03:13:14;101190.00;;;9.24;100.00
55301;BME280;58302;51.446;-2.000;2023-02-17T03:15:41;101186.69;;;9.22;100.00
55301;BME280;58302;51.446;-2.000;2023-02-17T03:18:07;101176.09;;;9.21;100.00
55301;BME280;58302;51.446;-2.000;2023-02-17T03:20:37;101165.25;;;9.21;100.00
55301;BME280;58302;51.446;-2.000;2023-02-17T03:23:05;101173.63;;;9.19;100.00
55301;BME280;58302;51.446;-2.000;2023-02-17T03:25:31;101179.06;;;9.19;100.00
55301;BME280;58302;51.446;-2.000;2023-02-17T03:27:57;101175.13;;;9.27;100.00
55301;BME280;58302;51.446;-2.000;2023-02-17T03:30:23;101161.34;;;9.29;100.00
55301;BME280;58302;51.446;-2.000;2023-02-17T03:32:49;101174.91;;;9.29;100.00
55301;BME280;58302;51.446;-2.000;2023-02-17T03:35:15;101180.91;;;9.31;100.00
55301;BME280;58302;51.446;-2.000;2023-02-17T03:37:41;101192.47;;;9.26;100.00
55301;BME280;58302;51.446;-2.000;2023-02-17T03:40:08;101189.19;;;9.24;100.00
55301;BME280;58302;51.446;-2.000;2023-02-17T03:42:34;101182.44;;;9.27;100.00
55301;BME280;58302;51.446;-2.000;2023-02-17T03:45:00;101200.50;;;9.21;100.00
55301;BME280;58302;51.446;-2.000;2023-02-17T03:47:26;101191.53;;;9.20;100.00
55301;BME280;58302;51.446;-2.000;2023-02-17T03:49:52;101197.78;;;9.21;100.00
55301;BME280;58302;51.446;-2.000;2023-02-17T03:52:18;101185.75;;;9.17;100.00
55301;BME280;58302;51.446;-2.000;2023-02-17T03:54:44;101186.59;;;9.17;100.00
55301;BME280;58302;51.446;-2.000;2023-02-17T03:57:10;101192.88;;;9.18;100.00
55301;BME280;58302;51.446;-2.000;2023-02-17T03:59:36;101192.00;;;9.17;100.00
55301;BME280;58302;51.446;-2.000;2023-02-17T04:02:02;101190.38;;;9.16;100.00
55301;BME280;58302;51.446;-2.000;2023-02-17T04:04:29;101182.94;;;9.12;100.00
55301;BME280;58302;51.446;-2.000;2023-02-17T04:06:55;101175.53;;;9.07;100.00
55301;BME280;58302;51.446;-2.000;2023-02-17T04:09:21;101172.94;;;9.01;100.00
55301;BME280;58302;51.446;-2.000;2023-02-17T04:11:47;101174.25;;;8.98;100.00
55301;BME280;58302;51.446;-2.000;2023-02-17T04:14:12;101172.84;;;8.95;100.00
55301;BME280;58302;51.446;-2.000;2023-02-17T04:16:38;101160.94;;;8.96;100.00
55301;BME280;58302;51.446;-2.000;2023-02-17T04:19:07;101163.84;;;8.95;100.00
55301;BME280;58302;51.446;-2.000;2023-02-17T04:21:33;101160.69;;;8.98;100.00
55301;BME280;58302;51.446;-2.000;2023-02-17T04:24:00;101164.78;;;9.01;100.00
55301;BME280;58302;51.446;-2.000;2023-02-17T04:26:27;101155.38;;;9.03;100.00
55301;BME280;58302;51.446;-2.000;2023-02-17T04:28:53;101170.44;;;9.11;100.00
55301;BME280;58302;51.446;-2.000;2023-02-17T04:31:19;101160.91;;;9.08;100.00
55301;BME280;58302;51.446;-2.000;2023-02-17T04:33:45;101172.22;;;9.05;100.00
55301;BME280;58302;51.446;-2.000;2023-02-17T04:36:11;101174.34;;;9.03;100.00
55301;BME280;58302;51.446;-2.000;2023-02-17T04:38:37;101165.97;;;9.05;100.00
55301;BME280;58302;51.446;-2.000;2023-02-17T04:41:04;101170.13;;;9.07;100.00
55301;BME280;58302;51.446;-2.000;2023-02-17T04:43:31;101182.25;;;9.05;100.00
55301;BME280;58302;51.446;-2.000;2023-02-17T04:45:57;101168.69;;;9.05;100.00
55301;BME280;58302;51.446;-2.000;2023-02-17T04:48:24;101166.59;;;9.07;100.00
55301;BME280;58302;51.446;-2.000;2023-02-17T04:50:50;101163.03;;;9.06;100.00
55301;BME280;58302;51.446;-2.000;2023-02-17T04:53:17;101162.81;;;9.08;100.00
55301;BME280;58302;51.446;-2.000;2023-02-17T04:55:43;101153.09;;;9.12;100.00
55301;BME280;58302;51.446;-2.000;2023-02-17T04:58:12;101152.91;;;9.13;100.00
55301;BME280;58302;51.446;-2.000;2023-02-17T05:00:38;101159.13;;;9.14;100.00
55301;BME280;58302;51.446;-2.000;2023-02-17T05:03:04;101148.63;;;9.17;100.00
55301;BME280;58302;51.446;-2.000;2023-02-17T05:05:30;101140.03;;;9.20;100.00
55301;BME280;58302;51.446;-2.000;2023-02-17T05:07:56;101120.91;;;9.27;100.00
55301;BME280;58302;51.446;-2.000;2023-02-17T05:10:22;101134.69;;;9.26;100.00
55301;BME280;58302;51.446;-2.000;2023-02-17T05:12:48;101127.25;;;9.33;100.00
55301;BME280;58302;51.446;-2.000;2023-02-17T05:15:14;101130.22;;;9.31;100.00
55301;BME280;58302;51.446;-2.000;2023-02-17T05:17:40;101125.59;;;9.32;100.00
55301;BME280;58302;51.446;-2.000;2023-02-17T05:20:06;101132.91;;;9.31;100.00
55301;BME280;58302;51.446;-2.000;2023-02-17T05:22:33;101128.06;;;9.33;100.00
55301;BME280;58302;51.446;-2.000;2023-02-17T05:24:59;101129.38;;;9.31;100.00
55301;BME280;58302;51.446;-2.000;2023-02-17T05:27:25;101126.19;;;9.34;100.00
55301;BME280;58302;51.446;-2.000;2023-02-17T05:29:51;101121.94;;;9.38;100.00
55301;BME280;58302;51.446;-2.000;2023-02-17T05:32:17;101124.06;;;9.36;100.00
55301;BME280;58302;51.446;-2.000;2023-02-17T05:34:43;101128.41;;;9.37;100.00
55301;BME280;58302;51.446;-2.000;2023-02-17T05:37:09;101115.31;;;9.34;100.00
55301;BME280;58302;51.446;-2.000;2023-02-17T05:39:36;101125.34;;;9.33;100.00
55301;BME280;58302;51.446;-2.000;2023-02-17T05:42:01;101114.75;;;9.32;100.00
55301;BME280;58302;51.446;-2.000;2023-02-17T05:44:27;101122.88;;;9.32;100.00
55301;BME280;58302;51.446;-2.000;2023-02-17T05:46:54;101124.53;;;9.33;100.00
55301;BME280;58302;51.446;-2.000;2023-02-17T05:49:19;101119.72;;;9.35;100.00
55301;BME280;58302;51.446;-2.000;2023-02-17T05:51:46;101116.50;;;9.38;100.00
55301;BME280;58302;51.446;-2.000;2023-02-17T05:54:11;101112.72;;;9.39;100.00
55301;BME280;58302;51.446;-2.000;2023-02-17T05:56:37;101116.25;;;9.39;100.00
55301;BME280;58302;51.446;-2.000;2023-02-17T05:59:03;101114.97;;;9.42;100.00
55301;BME280;58302;51.446;-2.000;2023-02-17T06:01:29;101112.00;;;9.43;100.00
55301;BME280;58302;51.446;-2.000;2023-02-17T06:03:55;101120.50;;;9.47;100.00
55301;BME280;58302;51.446;-2.000;2023-02-17T06:06:21;101110.22;;;9.49;100.00
55301;BME280;58302;51.446;-2.000;2023-02-17T06:08:47;101112.44;;;9.52;100.00
55301;BME280;58302;51.446;-2.000;2023-02-17T06:11:13;101113.69;;;9.61;100.00
55301;BME280;58302;51.446;-2.000;2023-02-17T06:13:39;101109.78;;;9.69;100.00
55301;BME280;58302;51.446;-2.000;2023-02-17T06:16:05;101104.44;;;9.74;100.00
55301;BME280;58302;51.446;-2.000;2023-02-17T06:18:31;101106.91;;;9.75;100.00
55301;BME280;58302;51.446;-2.000;2023-02-17T06:20:58;101101.22;;;9.77;100.00
55301;BME280;58302;51.446;-2.000;2023-02-17T06:23:25;101093.44;;;9.81;100.00
55301;BME280;58302;51.446;-2.000;2023-02-17T06:25:52;101097.53;;;9.83;100.00
55301;BME280;58302;51.446;-2.000;2023-02-17T06:28:18;101107.81;;;9.81;100.00
55301;BME280;58302;51.446;-2.000;2023-02-17T06:30:45;101100.84;;;9.85;100.00
55301;BME280;58302;51.446;-2.000;2023-02-17T06:33:11;101109.91;;;9.91;100.00
55301;BME280;58302;51.446;-2.000;2023-02-17T06:35:37;101123.47;;;9.91;100.00
55301;BME280;58302;51.446;-2.000;2023-02-17T06:38:03;101122.41;;;9.92;100.00
55301;BME280;58302;51.446;-2.000;2023-02-17T06:40:29;101134.91;;;9.93;100.00
55301;BME280;58302;51.446;-2.000;2023-02-17T06:42:55;101127.03;;;9.91;100.00
55301;BME280;58302;51.446;-2.000;2023-02-17T06:45:21;101127.19;;;9.85;100.00
55301;BME280;58302;51.446;-2.000;2023-02-17T06:47:47;101129.28;;;9.83;100.00
55301;BME280;58302;51.446;-2.000;2023-02-17T06:50:13;101137.69;;;9.81;100.00
55301;BME280;58302;51.446;-2.000;2023-02-17T06:52:40;101124.38;;;9.80;100.00
55301;BME280;58302;51.446;-2.000;2023-02-17T06:55:06;101129.28;;;9.83;100.00
55301;BME280;58302;51.446;-2.000;2023-02-17T06:57:32;101136.41;;;9.84;100.00
55301;BME280;58302;51.446;-2.000;2023-02-17T06:59:58;101139.69;;;9.86;100.00
55301;BME280;58302;51.446;-2.000;2023-02-17T07:02:24;101152.84;;;9.94;100.00
55301;BME280;58302;51.446;-2.000;2023-02-17T07:04:50;101165.38;;;9.95;100.00
55301;BME280;58302;51.446;-2.000;2023-02-17T07:07:16;101162.66;;;9.95;100.00
55301;BME280;58302;51.446;-2.000;2023-02-17T07:09:42;101168.66;;;9.97;100.00
55301;BME280;58302;51.446;-2.000;2023-02-17T07:12:08;101171.94;;;9.99;100.00
55301;BME280;58302;51.446;-2.000;2023-02-17T07:14:34;101183.06;;;9.97;100.00
55301;BME280;58302;51.446;-2.000;2023-02-17T07:17:01;101188.59;;;10.02;100.00
55301;BME280;58302;51.446;-2.000;2023-02-17T07:19:27;101195.09;;;10.01;100.00
55301;BME280;58302;51.446;-2.000;2023-02-17T07:21:52;101199.09;;;9.99;100.00
55301;BME280;58302;51.446;-2.000;2023-02-17T07:24:18;101209.88;;;9.94;100.00
55301;BME280;58302;51.446;-2.000;2023-02-17T07:26:44;101182.50;;;9.95;100.00
55301;BME280;58302;51.446;-2.000;2023-02-17T07:29:10;101207.41;;;9.92;100.00
55301;BME280;58302;51.446;-2.000;2023-02-17T07:31:36;101209.53;;;9.90;100.00
55301;BME280;58302;51.446;-2.000;2023-02-17T07:34:03;101208.13;;;9.88;100.00
55301;BME280;58302;51.446;-2.000;2023-02-17T07:36:29;101152.19;;;9.87;100.00
55301;BME280;58302;51.446;-2.000;2023-02-17T07:38:57;101192.22;;;9.80;100.00
55301;BME280;58302;51.446;-2.000;2023-02-17T07:41:24;101229.16;;;9.81;100.00
55301;BME280;58302;51.446;-2.000;2023-02-17T07:43:55;101221.59;;;9.83;100.00
55301;BME280;58302;51.446;-2.000;2023-02-17T07:46:22;101222.78;;;9.87;100.00
55301;BME280;58302;51.446;-2.000;2023-02-17T07:48:48;101225.72;;;9.85;100.00
55301;BME280;58302;51.446;-2.000;2023-02-17T07:51:20;101243.66;;;9.86;100.00
55301;BME280;58302;51.446;-2.000;2023-02-17T07:53:48;101241.78;;;9.87;100.00
55301;BME280;58302;51.446;-2.000;2023-02-17T07:56:15;101245.56;;;9.86;100.00
55301;BME280;58302;51.446;-2.000;2023-02-17T07:58:43;101245.56;;;9.86;100.00
55301;BME280;58302;51.446;-2.000;2023-02-17T08:01:15;101246.63;;;9.85;100.00
55301;BME280;58302;51.446;-2.000;2023-02-17T08:03:41;101249.91;;;9.87;100.00
55301;BME280;58302;51.446;-2.000;2023-02-17T08:06:16;101255.09;;;9.88;100.00
55301;BME280;58302;51.446;-2.000;2023-02-17T08:08:43;101252.16;;;9.90;100.00
55301;BME280;58302;51.446;-2.000;2023-02-17T08:11:27;101265.75;;;9.90;100.00
55301;BME280;58302;51.446;-2.000;2023-02-17T08:14:13;101258.06;;;9.87;100.00
55301;BME280;58302;51.446;-2.000;2023-02-17T08:16:39;101270.47;;;9.83;100.00
55301;BME280;58302;51.446;-2.000;2023-02-17T08:19:05;101256.06;;;9.82;100.00
55301;BME280;58302;51.446;-2.000;2023-02-17T08:21:32;101258.88;;;9.87;100.00
55301;BME280;58302;51.446;-2.000;2023-02-17T08:23:58;101261.94;;;9.91;100.00
55301;BME280;58302;51.446;-2.000;2023-02-17T08:26:24;101260.41;;;9.95;100.00
55301;BME280;58302;51.446;-2.000;2023-02-17T08:28:50;101279.63;;;9.93;100.00
55301;BME280;58302;51.446;-2.000;2023-02-17T08:31:26;101290.28;;;9.95;100.00
55301;BME280;58302;51.446;-2.000;2023-02-17T08:33:53;101269.97;;;9.97;100.00
55301;BME280;58302;51.446;-2.000;2023-02-17T08:36:20;101263.94;;;9.95;100.00
55301;BME280;58302;51.446;-2.000;2023-02-17T08:38:47;101265.94;;;10.00;100.00
55301;BME280;58302;51.446;-2.000;2023-02-17T08:43:42;101284.81;;;10.07;100.00
55301;BME280;58302;51.446;-2.000;2023-02-17T08:46:09;101290.34;;;10.12;100.00
55301;BME280;58302;51.446;-2.000;2023-02-17T08:48:35;101280.31;;;10.12;100.00
55301;BME280;58302;51.446;-2.000;2023-02-17T08:51:03;101282.31;;;10.17;100.00
55301;BME280;58302;51.446;-2.000;2023-02-17T08:53:29;101282.63;;;10.20;100.00
55301;BME280;58302;51.446;-2.000;2023-02-17T08:55:55;101281.47;;;10.28;100.00
55301;BME280;58302;51.446;-2.000;2023-02-17T08:58:21;101274.69;;;10.31;100.00
55301;BME280;58302;51.446;-2.000;2023-02-17T09:00:47;101288.63;;;10.34;100.00
55301;BME280;58302;51.446;-2.000;2023-02-17T09:03:14;101298.19;;;10.37;100.00
55301;BME280;58302;51.446;-2.000;2023-02-17T09:05:40;101308.16;;;10.48;100.00
55301;BME280;58302;51.446;-2.000;2023-02-17T09:08:06;101313.69;;;10.53;100.00
55301;BME280;58302;51.446;-2.000;2023-02-17T09:10:32;101298.06;;;10.60;100.00
55301;BME280;58302;51.446;-2.000;2023-02-17T09:12:58;101294.28;;;10.61;100.00
55301;BME280;58302;51.446;-2.000;2023-02-17T09:15:24;101321.56;;;10.66;100.00
55301;BME280;58302;51.446;-2.000;2023-02-17T09:17:50;101334.66;;;10.69;100.00
55301;BME280;58302;51.446;-2.000;2023-02-17T09:20:16;101315.38;;;10.71;100.00
55301;BME280;58302;51.446;-2.000;2023-02-17T09:22:44;101318.78;;;10.78;100.00
55301;BME280;58302;51.446;-2.000;2023-02-17T09:25:10;101315.66;;;10.86;100.00
55301;BME280;58302;51.446;-2.000;2023-02-17T09:27:36;101316.56;;;10.92;100.00
55301;BME280;58302;51.446;-2.000;2023-02-17T09:30:02;101308.22;;;10.98;100.00
55301;BME280;58302;51.446;-2.000;2023-02-17T09:32:28;101317.38;;;10.92;100.00
55301;BME280;58302;51.446;-2.000;2023-02-17T09:34:54;101325.78;;;10.91;100.00
55301;BME280;58302;51.446;-2.000;2023-02-17T09:37:20;101327.44;;;10.92;100.00
55301;BME280;58302;51.446;-2.000;2023-02-17T09:39:47;101328.13;;;10.99;100.00
55301;BME280;58302;51.446;-2.000;2023-02-17T09:42:19;101323.25;;;11.01;100.00
55301;BME280;58302;51.446;-2.000;2023-02-17T09:44:53;101326.16;;;11.11;100.00
55301;BME280;58302;51.446;-2.000;2023-02-17T09:47:28;101311.47;;;11.12;100.00
55301;BME280;58302;51.446;-2.000;2023-02-17T09:50:01;101312.28;;;11.13;100.00
55301;BME280;58302;51.446;-2.000;2023-02-17T09:52:32;101326.78;;;11.18;100.00
55301;BME280;58302;51.446;-2.000;2023-02-17T09:55:12;101308.81;;;11.17;100.00
55301;BME280;58302;51.446;-2.000;2023-02-17T10:00:31;101327.88;;;11.17;100.00
55301;BME280;58302;51.446;-2.000;2023-02-17T10:05:47;101335.69;;;11.14;100.00
55301;BME280;58302;51.446;-2.000;2023-02-17T10:08:18;101323.00;;;11.19;100.00
55301;BME280;58302;51.446;-2.000;2023-02-17T10:10:53;101332.81;;;11.20;100.00
55301;BME280;58302;51.446;-2.000;2023-02-17T10:13:21;101327.63;;;11.19;100.00
55301;BME280;58302;51.446;-2.000;2023-02-17T10:15:51;101331.50;;;11.23;100.00
55301;BME280;58302;51.446;-2.000;2023-02-17T10:21:18;101324.81;;;11.30;100.00
55301;BME280;58302;51.446;-2.000;2023-02-17T10:23:48;101316.72;;;11.35;100.00
55301;BME280;58302;51.446;-2.000;2023-02-17T10:26:25;101306.16;;;11.39;100.00
55301;BME280;58302;51.446;-2.000;2023-02-17T10:29:49;101303.84;;;11.48;100.00
55301;BME280;58302;51.446;-2.000;2023-02-17T10:32:25;101311.19;;;11.47;100.00
55301;BME280;58302;51.446;-2.000;2023-02-17T10:35:13;101331.81;;;11.60;100.00
55301;BME280;58302;51.446;-2.000;2023-02-17T10:37:44;101315.38;;;11.55;100.00
55301;BME280;58302;51.446;-2.000;2023-02-17T10:40:21;101310.75;;;11.55;100.00
55301;BME280;58302;51.446;-2.000;2023-02-17T10:42:50;101317.94;;;11.61;100.00
55301;BME280;58302;51.446;-2.000;2023-02-17T10:45:28;101303.31;;;11.68;100.00
55301;BME280;58302;51.446;-2.000;2023-02-17T10:48:01;101302.22;;;11.69;100.00
55301;BME280;58302;51.446;-2.000;2023-02-17T10:50:29;101311.53;;;11.73;100.00
55301;BME280;58302;51.446;-2.000;2023-02-17T10:52:55;101310.09;;;11.65;100.00
55301;BME280;58302;51.446;-2.000;2023-02-17T10:55:28;101308.13;;;11.60;100.00
55301;BME280;58302;51.446;-2.000;2023-02-17T10:58:06;101292.53;;;11.56;100.00
55301;BME280;58302;51.446;-2.000;2023-02-17T11:00:36;101312.28;;;11.68;100.00
55301;BME280;58302;51.446;-2.000;2023-02-17T11:03:02;101305.84;;;11.74;100.00
55301;BME280;58302;51.446;-2.000;2023-02-17T11:05:31;101313.81;;;11.81;100.00
55301;BME280;58302;51.446;-2.000;2023-02-17T11:08:27;101302.94;;;11.81;100.00
55301;BME280;58302;51.446;-2.000;2023-02-17T11:11:02;101280.41;;;11.85;100.00
55301;BME280;58302;51.446;-2.000;2023-02-17T11:16:01;101290.34;;;11.97;100.00
55301;BME280;58302;51.446;-2.000;2023-02-17T11:18:31;101304.94;;;12.07;100.00
55301;BME280;58302;51.446;-2.000;2023-02-17T11:21:04;101305.38;;;12.21;100.00
55301;BME280;58302;51.446;-2.000;2023-02-17T11:23:30;101304.97;;;12.34;100.00
55301;BME280;58302;51.446;-2.000;2023-02-17T11:25:59;101310.75;;;12.38;100.00
55301;BME280;58302;51.446;-2.000;2023-02-17T11:28:27;101333.81;;;12.30;100.00
55301;BME280;58302;51.446;-2.000;2023-02-17T11:30:57;101335.03;;;12.18;100.00
55301;BME280;58302;51.446;-2.000;2023-02-17T11:33:36;101339.66;;;12.17;100.00
55301;BME280;58302;51.446;-2.000;2023-02-17T11:36:04;101341.97;;;12.03;100.00
55301;BME280;58302;51.446;-2.000;2023-02-17T11:38:43;101332.25;;;12.12;100.00
55301;BME280;58302;51.446;-2.000;2023-02-17T11:41:10;101353.03;;;12.19;100.00
55301;BME280;58302;51.446;-2.000;2023-02-17T11:43:36;101343.00;;;12.24;100.00
55301;BME280;58302;51.446;-2.000;2023-02-17T11:54:23;101329.63;;;12.45;100.00
55301;BME280;58302;51.446;-2.000;2023-02-17T11:57:02;101321.13;;;12.41;100.00
55301;BME280;58302;51.446;-2.000;2023-02-17T12:13:52;101324.38;;;12.65;100.00
55301;BME280;58302;51.446;-2.000;2023-02-17T12:19:13;101337.09;;;12.54;100.00
55301;BME280;58302;51.446;-2.000;2023-02-17T12:27:38;101334.75;;;12.68;100.00
55301;BME280;58302;51.446;-2.000;2023-02-17T12:30:15;101342.38;;;12.66;100.00
55301;BME280;58302;51.446;-2.000;2023-02-17T12:35:50;101339.88;;;12.59;100.00
55301;BME280;58302;51.446;-2.000;2023-02-17T12:38:24;101348.00;;;12.54;100.00
55301;BME280;58302;51.446;-2.000;2023-02-17T12:43:54;101347.63;;;12.46;100.00
55301;BME280;58302;51.446;-2.000;2023-02-17T12:46:26;101339.38;;;12.40;100.00
55301;BME280;58302;51.446;-2.000;2023-02-17T12:48:59;101339.09;;;12.37;100.00
55301;BME280;58302;51.446;-2.000;2023-02-17T12:51:53;101332.50;;;12.33;100.00
55301;BME280;58302;51.446;-2.000;2023-02-17T12:57:26;101327.47;;;12.25;100.00
55301;BME280;58302;51.446;-2.000;2023-02-17T12:59:55;101314.22;;;12.33;100.00
55301;BME280;58302;51.446;-2.000;2023-02-17T13:02:24;101307.19;;;12.37;100.00
55301;BME280;58302;51.446;-2.000;2023-02-17T13:04:53;101307.25;;;12.43;100.00
55301;BME280;58302;51.446;-2.000;2023-02-17T13:07:48;101306.50;;;12.47;100.00
55301;BME280;58302;51.446;-2.000;2023-02-17T13:10:21;101312.59;;;12.59;100.00
55301;BME280;58302;51.446;-2.000;2023-02-17T13:13:05;101321.13;;;12.41;100.00
55301;BME280;58302;51.446;-2.000;2023-02-17T13:15:44;101314.69;;;12.25;100.00
55301;BME280;58302;51.446;-2.000;2023-02-17T13:18:13;101276.47;;;12.20;100.00
55301;BME280;58302;51.446;-2.000;2023-02-17T13:20:54;101309.06;;;12.10;100.00
55301;BME280;58302;51.446;-2.000;2023-02-17T13:23:34;101307.16;;;12.10;100.00
55301;BME280;58302;51.446;-2.000;2023-02-17T13:26:13;101300.69;;;12.17;100.00
55301;BME280;58302;51.446;-2.000;2023-02-17T13:28:41;101289.59;;;12.23;100.00
55301;BME280;58302;51.446;-2.000;2023-02-17T13:31:21;101301.88;;;12.26;100.00
55301;BME280;58302;51.446;-2.000;2023-02-17T13:33:54;101303.88;;;12.35;100.00
55301;BME280;58302;51.446;-2.000;2023-02-17T13:38:58;101304.16;;;12.12;100.00
55301;BME280;58302;51.446;-2.000;2023-02-17T13:41:45;101312.22;;;12.24;100.00
55301;BME280;58302;51.446;-2.000;2023-02-17T13:44:38;101309.34;;;12.35;100.00
55301;BME280;58302;51.446;-2.000;2023-02-17T13:47:17;101331.53;;;12.22;100.00
55301;BME280;58302;51.446;-2.000;2023-02-17T13:49:55;101324.00;;;12.07;100.00
55301;BME280;58302;51.446;-2.000;2023-02-17T13:52:24;101318.75;;;12.01;100.00
55301;BME280;58302;51.446;-2.000;2023-02-17T13:54:56;101328.81;;;12.00;100.00
55301;BME280;58302;51.446;-2.000;2023-02-17T14:02:51;101350.09;;;11.65;100.00
55301;BME280;58302;51.446;-2.000;2023-02-17T14:05:36;101365.38;;;11.49;100.00